Albee, South Dakota
Current Conditions -  °F | °C
As of 12:33 AM on Friday 19 Dec 2014 (Local Time) from KDXX Reporting Station
Clear Clear  
Wind Chill: 21°   Ceiling: Unl
Heat Index: 27°   Visibility: 10mi
Dew Point: 25°   Wind: 5mph
Humidity: 93%   Direction: 150°SSE
Pressure: 30.2"   Gusts: NA
Location:  45.0205°N, 96.5453°W
Report Text: KDXX 190633Z AUTO 15004KT 10SM CLR M03/M04 A3020 RMK AO2
Loading
Personal Weather Stations






























Interactive Weather Map New forecast layout! Learn more

10-Day Weather Forecast

Advertisements
Track Severe Weather on mobile